sensor_id;sensor_type;location;lat;lon;timestamp;P1;durP1;ratioP1;P2;durP2;ratioP2
8803;SDS011;4438;50.890;4.726;2023-02-28T00:00:05;7.40;;;6.60;;
8803;SDS011;4438;50.890;4.726;2023-02-28T00:02:42;9.00;;;6.97;;
8803;SDS011;4438;50.890;4.726;2023-02-28T00:05:09;8.20;;;6.33;;
8803;SDS011;4438;50.890;4.726;2023-02-28T00:07:36;8.03;;;6.37;;
8803;SDS011;4438;50.890;4.726;2023-02-28T00:10:03;9.70;;;7.00;;
8803;SDS011;4438;50.890;4.726;2023-02-28T00:12:31;7.43;;;6.63;;
8803;SDS011;4438;50.890;4.726;2023-02-28T00:14:57;9.10;;;7.17;;
8803;SDS011;4438;50.890;4.726;2023-02-28T00:17:23;10.03;;;6.67;;
8803;SDS011;4438;50.890;4.726;2023-02-28T00:19:50;8.27;;;7.10;;
8803;SDS011;4438;50.890;4.726;2023-02-28T00:22:17;7.73;;;7.00;;
8803;SDS011;4438;50.890;4.726;2023-02-28T00:24:44;8.33;;;7.30;;
8803;SDS011;4438;50.890;4.726;2023-02-28T00:27:10;10.00;;;7.00;;
8803;SDS011;4438;50.890;4.726;2023-02-28T00:29:36;10.07;;;7.33;;
8803;SDS011;4438;50.890;4.726;2023-02-28T00:32:03;7.63;;;6.43;;
8803;SDS011;4438;50.890;4.726;2023-02-28T00:34:29;7.37;;;6.07;;
8803;SDS011;4438;50.890;4.726;2023-02-28T00:36:55;8.60;;;7.03;;
8803;SDS011;4438;50.890;4.726;2023-02-28T00:39:22;8.50;;;6.80;;
8803;SDS011;4438;50.890;4.726;2023-02-28T00:41:48;7.60;;;6.07;;
8803;SDS011;4438;50.890;4.726;2023-02-28T00:44:14;8.00;;;6.20;;
8803;SDS011;4438;50.890;4.726;2023-02-28T00:46:40;7.10;;;6.30;;
8803;SDS011;4438;50.890;4.726;2023-02-28T00:49:06;7.37;;;6.50;;
8803;SDS011;4438;50.890;4.726;2023-02-28T00:51:32;6.77;;;6.00;;
8803;SDS011;4438;50.890;4.726;2023-02-28T00:53:59;6.97;;;6.23;;
8803;SDS011;4438;50.890;4.726;2023-02-28T00:56:25;8.60;;;6.40;;
8803;SDS011;4438;50.890;4.726;2023-02-28T00:58:51;8.03;;;6.20;;
8803;SDS011;4438;50.890;4.726;2023-02-28T01:01:17;6.43;;;5.83;;
8803;SDS011;4438;50.890;4.726;2023-02-28T01:03:43;7.37;;;5.90;;
8803;SDS011;4438;50.890;4.726;2023-02-28T01:06:09;7.73;;;6.50;;
8803;SDS011;4438;50.890;4.726;2023-02-28T01:08:35;7.43;;;6.23;;
8803;SDS011;4438;50.890;4.726;2023-02-28T01:11:11;7.17;;;6.30;;
8803;SDS011;4438;50.890;4.726;2023-02-28T01:13:37;6.93;;;6.27;;
8803;SDS011;4438;50.890;4.726;2023-02-28T01:16:04;9.47;;;6.30;;
8803;SDS011;4438;50.890;4.726;2023-02-28T01:18:30;6.90;;;6.20;;
8803;SDS011;4438;50.890;4.726;2023-02-28T01:20:56;6.97;;;6.27;;
8803;SDS011;4438;50.890;4.726;2023-02-28T01:23:22;6.73;;;6.03;;
8803;SDS011;4438;50.890;4.726;2023-02-28T01:25:49;8.07;;;6.00;;
8803;SDS011;4438;50.890;4.726;2023-02-28T01:28:15;7.10;;;6.40;;
8803;SDS011;4438;50.890;4.726;2023-02-28T01:30:41;6.47;;;5.87;;
8803;SDS011;4438;50.890;4.726;2023-02-28T01:33:07;7.60;;;6.20;;
8803;SDS011;4438;50.890;4.726;2023-02-28T01:35:34;7.43;;;6.37;;
8803;SDS011;4438;50.890;4.726;2023-02-28T01:38:00;7.23;;;6.17;;
8803;SDS011;4438;50.890;4.726;2023-02-28T01:40:26;7.67;;;6.60;;
8803;SDS011;4438;50.890;4.726;2023-02-28T01:42:52;7.87;;;6.67;;
8803;SDS011;4438;50.890;4.726;2023-02-28T01:47:45;7.23;;;6.27;;
8803;SDS011;4438;50.890;4.726;2023-02-28T01:50:15;7.03;;;6.30;;
8803;SDS011;4438;50.890;4.726;2023-02-28T01:52:42;9.30;;;6.57;;
8803;SDS011;4438;50.890;4.726;2023-02-28T01:55:08;7.07;;;6.30;;
8803;SDS011;4438;50.890;4.726;2023-02-28T01:57:45;8.10;;;6.60;;
8803;SDS011;4438;50.890;4.726;2023-02-28T02:00:16;6.87;;;6.17;;
8803;SDS011;4438;50.890;4.726;2023-02-28T02:02:43;7.90;;;6.20;;
8803;SDS011;4438;50.890;4.726;2023-02-28T02:05:12;7.77;;;6.57;;
8803;SDS011;4438;50.890;4.726;2023-02-28T02:07:40;6.60;;;6.00;;
8803;SDS011;4438;50.890;4.726;2023-02-28T02:10:12;7.93;;;6.47;;
8803;SDS011;4438;50.890;4.726;2023-02-28T02:17:52;7.70;;;6.30;;
8803;SDS011;4438;50.890;4.726;2023-02-28T02:20:32;8.77;;;6.83;;
8803;SDS011;4438;50.890;4.726;2023-02-28T02:23:12;7.87;;;6.63;;
8803;SDS011;4438;50.890;4.726;2023-02-28T02:25:49;7.73;;;6.80;;
8803;SDS011;4438;50.890;4.726;2023-02-28T02:35:49;7.27;;;6.43;;
8803;SDS011;4438;50.890;4.726;2023-02-28T02:38:35;7.00;;;6.27;;
8803;SDS011;4438;50.890;4.726;2023-02-28T02:43:36;7.83;;;6.27;;
8803;SDS011;4438;50.890;4.726;2023-02-28T02:46:47;7.80;;;6.97;;
8803;SDS011;4438;50.890;4.726;2023-02-28T02:48:54;8.33;;;6.63;;
8803;SDS011;4438;50.890;4.726;2023-02-28T02:51:21;7.87;;;6.93;;
8803;SDS011;4438;50.890;4.726;2023-02-28T02:53:53;7.70;;;6.93;;
8803;SDS011;4438;50.890;4.726;2023-02-28T02:56:21;7.63;;;6.93;;
8803;SDS011;4438;50.890;4.726;2023-02-28T02:58:49;7.53;;;6.70;;
8803;SDS011;4438;50.890;4.726;2023-02-28T03:01:22;9.07;;;7.03;;
8803;SDS011;4438;50.890;4.726;2023-02-28T03:03:58;8.07;;;6.67;;
8803;SDS011;4438;50.890;4.726;2023-02-28T03:06:25;8.27;;;7.00;;
8803;SDS011;4438;50.890;4.726;2023-02-28T03:08:52;9.57;;;7.20;;
8803;SDS011;4438;50.890;4.726;2023-02-28T03:11:18;8.37;;;7.23;;
8803;SDS011;4438;50.890;4.726;2023-02-28T03:16:34;9.03;;;7.33;;
8803;SDS011;4438;50.890;4.726;2023-02-28T03:24:07;9.90;;;7.73;;
8803;SDS011;4438;50.890;4.726;2023-02-28T03:26:34;8.93;;;8.00;;
8803;SDS011;4438;50.890;4.726;2023-02-28T03:31:41;8.20;;;7.30;;
8803;SDS011;4438;50.890;4.726;2023-02-28T03:34:13;8.47;;;7.13;;
8803;SDS011;4438;50.890;4.726;2023-02-28T03:36:43;8.43;;;7.60;;
8803;SDS011;4438;50.890;4.726;2023-02-28T03:39:13;8.30;;;7.43;;
8803;SDS011;4438;50.890;4.726;2023-02-28T03:41:59;8.33;;;7.47;;
8803;SDS011;4438;50.890;4.726;2023-02-28T03:44:40;8.23;;;7.27;;
8803;SDS011;4438;50.890;4.726;2023-02-28T03:47:09;8.03;;;7.20;;
8803;SDS011;4438;50.890;4.726;2023-02-28T03:49:39;9.90;;;7.60;;
8803;SDS011;4438;50.890;4.726;2023-02-28T03:52:08;10.43;;;7.97;;
8803;SDS011;4438;50.890;4.726;2023-02-28T03:54:36;8.73;;;7.83;;
8803;SDS011;4438;50.890;4.726;2023-02-28T03:59:49;8.70;;;7.73;;
8803;SDS011;4438;50.890;4.726;2023-02-28T04:02:18;8.33;;;7.53;;
8803;SDS011;4438;50.890;4.726;2023-02-28T04:04:44;9.43;;;7.73;;
8803;SDS011;4438;50.890;4.726;2023-02-28T04:07:13;11.77;;;8.67;;
8803;SDS011;4438;50.890;4.726;2023-02-28T04:09:40;9.13;;;8.00;;
8803;SDS011;4438;50.890;4.726;2023-02-28T04:12:06;11.00;;;8.97;;
8803;SDS011;4438;50.890;4.726;2023-02-28T04:14:32;9.37;;;8.40;;
8803;SDS011;4438;50.890;4.726;2023-02-28T04:16:58;9.67;;;8.67;;
8803;SDS011;4438;50.890;4.726;2023-02-28T04:19:24;10.63;;;8.70;;
8803;SDS011;4438;50.890;4.726;2023-02-28T04:21:51;9.60;;;8.47;;
8803;SDS011;4438;50.890;4.726;2023-02-28T04:24:19;9.13;;;8.20;;
8803;SDS011;4438;50.890;4.726;2023-02-28T04:26:46;10.30;;;8.30;;
8803;SDS011;4438;50.890;4.726;2023-02-28T04:29:14;10.77;;;9.00;;
8803;SDS011;4438;50.890;4.726;2023-02-28T04:31:40;9.63;;;8.47;;
8803;SDS011;4438;50.890;4.726;2023-02-28T04:34:06;9.80;;;8.80;;
8803;SDS011;4438;50.890;4.726;2023-02-28T04:36:32;10.60;;;8.50;;
8803;SDS011;4438;50.890;4.726;2023-02-28T04:38:58;9.93;;;8.80;;
8803;SDS011;4438;50.890;4.726;2023-02-28T04:41:24;11.00;;;9.33;;
8803;SDS011;4438;50.890;4.726;2023-02-28T04:43:51;11.27;;;8.83;;
8803;SDS011;4438;50.890;4.726;2023-02-28T04:46:18;12.13;;;9.63;;
8803;SDS011;4438;50.890;4.726;2023-02-28T04:48:44;10.53;;;8.73;;
8803;SDS011;4438;50.890;4.726;2023-02-28T04:51:11;12.77;;;9.43;;
8803;SDS011;4438;50.890;4.726;2023-02-28T04:53:38;10.00;;;8.90;;
8803;SDS011;4438;50.890;4.726;2023-02-28T04:56:05;11.77;;;9.17;;
8803;SDS011;4438;50.890;4.726;2023-02-28T04:58:32;12.43;;;9.27;;
8803;SDS011;4438;50.890;4.726;2023-02-28T05:01:05;10.30;;;9.27;;
8803;SDS011;4438;50.890;4.726;2023-02-28T05:03:41;10.70;;;8.67;;
8803;SDS011;4438;50.890;4.726;2023-02-28T05:06:07;11.30;;;9.10;;
8803;SDS011;4438;50.890;4.726;2023-02-28T05:08:34;11.60;;;8.63;;
8803;SDS011;4438;50.890;4.726;2023-02-28T05:11:00;10.43;;;8.90;;
8803;SDS011;4438;50.890;4.726;2023-02-28T05:13:26;10.10;;;9.10;;
8803;SDS011;4438;50.890;4.726;2023-02-28T05:15:53;10.30;;;9.07;;
8803;SDS011;4438;50.890;4.726;2023-02-28T05:18:19;10.27;;;9.17;;
8803;SDS011;4438;50.890;4.726;2023-02-28T05:20:45;11.97;;;9.63;;
8803;SDS011;4438;50.890;4.726;2023-02-28T05:23:12;11.13;;;9.53;;
8803;SDS011;4438;50.890;4.726;2023-02-28T05:25:38;10.10;;;9.10;;
8803;SDS011;4438;50.890;4.726;2023-02-28T05:28:04;12.60;;;10.47;;
8803;SDS011;4438;50.890;4.726;2023-02-28T05:30:31;10.97;;;9.43;;
8803;SDS011;4438;50.890;4.726;2023-02-28T05:32:57;10.93;;;9.40;;
8803;SDS011;4438;50.890;4.726;2023-02-28T05:35:24;11.13;;;9.80;;
8803;SDS011;4438;50.890;4.726;2023-02-28T05:37:50;11.40;;;9.53;;
8803;SDS011;4438;50.890;4.726;2023-02-28T05:40:16;11.53;;;9.30;;
8803;SDS011;4438;50.890;4.726;2023-02-28T05:42:42;10.87;;;9.57;;
8803;SDS011;4438;50.890;4.726;2023-02-28T05:45:09;14.03;;;10.00;;
8803;SDS011;4438;50.890;4.726;2023-02-28T05:47:35;11.47;;;9.97;;
8803;SDS011;4438;50.890;4.726;2023-02-28T05:50:01;12.90;;;10.77;;
8803;SDS011;4438;50.890;4.726;2023-02-28T05:52:28;11.70;;;10.13;;
8803;SDS011;4438;50.890;4.726;2023-02-28T05:54:57;11.13;;;10.03;;
8803;SDS011;4438;50.890;4.726;2023-02-28T05:57:24;11.77;;;10.00;;
8803;SDS011;4438;50.890;4.726;2023-02-28T05:59:50;10.97;;;9.80;;
8803;SDS011;4438;50.890;4.726;2023-02-28T06:02:16;11.27;;;9.67;;
8803;SDS011;4438;50.890;4.726;2023-02-28T06:04:43;10.80;;;9.63;;
8803;SDS011;4438;50.890;4.726;2023-02-28T06:07:10;11.20;;;10.00;;
8803;SDS011;4438;50.890;4.726;2023-02-28T06:09:36;12.27;;;9.40;;
8803;SDS011;4438;50.890;4.726;2023-02-28T06:12:03;11.07;;;9.87;;
8803;SDS011;4438;50.890;4.726;2023-02-28T06:14:31;10.77;;;9.67;;
8803;SDS011;4438;50.890;4.726;2023-02-28T06:16:57;11.77;;;9.20;;
8803;SDS011;4438;50.890;4.726;2023-02-28T06:19:23;12.23;;;10.40;;
8803;SDS011;4438;50.890;4.726;2023-02-28T06:21:53;11.87;;;9.93;;
8803;SDS011;4438;50.890;4.726;2023-02-28T06:24:20;11.63;;;9.73;;
8803;SDS011;4438;50.890;4.726;2023-02-28T06:26:46;11.80;;;10.03;;
8803;SDS011;4438;50.890;4.726;2023-02-28T06:29:13;12.30;;;10.40;;
8803;SDS011;4438;50.890;4.726;2023-02-28T06:31:43;12.10;;;10.30;;
8803;SDS011;4438;50.890;4.726;2023-02-28T06:34:10;11.50;;;9.60;;
8803;SDS011;4438;50.890;4.726;2023-02-28T06:36:37;12.00;;;9.93;;
8803;SDS011;4438;50.890;4.726;2023-02-28T06:39:03;11.80;;;10.50;;
8803;SDS011;4438;50.890;4.726;2023-02-28T06:41:29;10.47;;;9.37;;
8803;SDS011;4438;50.890;4.726;2023-02-28T06:43:56;12.63;;;10.00;;
8803;SDS011;4438;50.890;4.726;2023-02-28T06:46:22;12.07;;;10.60;;
8803;SDS011;4438;50.890;4.726;2023-02-28T06:48:49;11.07;;;9.87;;
8803;SDS011;4438;50.890;4.726;2023-02-28T06:51:17;11.90;;;10.50;;
8803;SDS011;4438;50.890;4.726;2023-02-28T06:53:45;12.03;;;10.67;;
8803;SDS011;4438;50.890;4.726;2023-02-28T06:56:12;11.07;;;9.97;;
8803;SDS011;4438;50.890;4.726;2023-02-28T06:58:38;13.10;;;11.03;;
8803;SDS011;4438;50.890;4.726;2023-02-28T07:01:05;12.33;;;9.83;;
8803;SDS011;4438;50.890;4.726;2023-02-28T07:03:32;14.97;;;10.53;;
8803;SDS011;4438;50.890;4.726;2023-02-28T07:05:58;11.50;;;10.40;;
8803;SDS011;4438;50.890;4.726;2023-02-28T07:08:24;14.70;;;10.37;;
8803;SDS011;4438;50.890;4.726;2023-02-28T07:10:52;13.10;;;11.03;;
8803;SDS011;4438;50.890;4.726;2023-02-28T07:13:18;11.83;;;10.60;;
8803;SDS011;4438;50.890;4.726;2023-02-28T07:15:52;12.40;;;10.53;;
8803;SDS011;4438;50.890;4.726;2023-02-28T07:18:18;14.47;;;10.93;;
8803;SDS011;4438;50.890;4.726;2023-02-28T07:20:44;13.57;;;10.27;;
8803;SDS011;4438;50.890;4.726;2023-02-28T07:23:10;12.07;;;10.27;;
8803;SDS011;4438;50.890;4.726;2023-02-28T07:25:36;13.57;;;10.10;;
8803;SDS011;4438;50.890;4.726;2023-02-28T07:28:02;11.27;;;9.47;;
8803;SDS011;4438;50.890;4.726;2023-02-28T07:30:28;11.10;;;10.00;;
8803;SDS011;4438;50.890;4.726;2023-02-28T07:32:54;14.67;;;11.20;;
8803;SDS011;4438;50.890;4.726;2023-02-28T07:35:21;11.80;;;9.63;;
8803;SDS011;4438;50.890;4.726;2023-02-28T07:37:47;10.87;;;9.77;;
8803;SDS011;4438;50.890;4.726;2023-02-28T07:40:14;12.40;;;9.70;;
8803;SDS011;4438;50.890;4.726;2023-02-28T07:42:41;11.90;;;10.10;;
8803;SDS011;4438;50.890;4.726;2023-02-28T07:45:07;17.13;;;10.50;;
8803;SDS011;4438;50.890;4.726;2023-02-28T07:47:37;11.70;;;10.10;;
8803;SDS011;4438;50.890;4.726;2023-02-28T07:50:03;14.03;;;11.57;;
8803;SDS011;4438;50.890;4.726;2023-02-28T07:52:30;11.60;;;9.43;;
8803;SDS011;4438;50.890;4.726;2023-02-28T07:54:56;11.70;;;9.00;;
8803;SDS011;4438;50.890;4.726;2023-02-28T07:57:22;11.93;;;9.20;;
8803;SDS011;4438;50.890;4.726;2023-02-28T07:59:48;13.43;;;8.97;;
8803;SDS011;4438;50.890;4.726;2023-02-28T08:02:14;10.40;;;8.83;;
8803;SDS011;4438;50.890;4.726;2023-02-28T08:04:41;12.10;;;8.33;;
8803;SDS011;4438;50.890;4.726;2023-02-28T08:07:07;11.67;;;8.67;;
8803;SDS011;4438;50.890;4.726;2023-02-28T08:09:33;11.80;;;8.53;;
8803;SDS011;4438;50.890;4.726;2023-02-28T08:12:01;8.83;;;7.93;;
8803;SDS011;4438;50.890;4.726;2023-02-28T08:14:27;10.67;;;8.40;;
8803;SDS011;4438;50.890;4.726;2023-02-28T08:16:53;10.57;;;8.37;;
8803;SDS011;4438;50.890;4.726;2023-02-28T08:19:22;9.37;;;8.33;;
8803;SDS011;4438;50.890;4.726;2023-02-28T08:21:48;10.30;;;7.77;;
8803;SDS011;4438;50.890;4.726;2023-02-28T08:24:14;10.30;;;7.83;;
8803;SDS011;4438;50.890;4.726;2023-02-28T08:26:40;8.30;;;7.37;;
8803;SDS011;4438;50.890;4.726;2023-02-28T08:29:06;8.20;;;6.83;;
8803;SDS011;4438;50.890;4.726;2023-02-28T08:31:32;8.30;;;7.33;;
8803;SDS011;4438;50.890;4.726;2023-02-28T08:34:04;7.77;;;6.80;;
8803;SDS011;4438;50.890;4.726;2023-02-28T08:36:30;9.27;;;6.93;;
8803;SDS011;4438;50.890;4.726;2023-02-28T08:38:56;8.33;;;7.03;;
8803;SDS011;4438;50.890;4.726;2023-02-28T08:41:24;7.80;;;7.00;;
8803;SDS011;4438;50.890;4.726;2023-02-28T08:43:51;9.47;;;6.60;;
8803;SDS011;4438;50.890;4.726;2023-02-28T08:46:18;8.53;;;7.10;;
8803;SDS011;4438;50.890;4.726;2023-02-28T08:48:45;8.87;;;7.20;;
8803;SDS011;4438;50.890;4.726;2023-02-28T08:51:12;6.97;;;6.27;;
8803;SDS011;4438;50.890;4.726;2023-02-28T08:53:39;7.30;;;6.60;;
8803;SDS011;4438;50.890;4.726;2023-02-28T08:56:07;9.80;;;6.33;;
8803;SDS011;4438;50.890;4.726;2023-02-28T08:58:34;7.73;;;6.50;;
8803;SDS011;4438;50.890;4.726;2023-02-28T09:01:00;7.27;;;6.23;;
8803;SDS011;4438;50.890;4.726;2023-02-28T09:03:26;7.93;;;6.17;;
8803;SDS011;4438;50.890;4.726;2023-02-28T09:05:56;6.50;;;5.80;;
8803;SDS011;4438;50.890;4.726;2023-02-28T09:08:24;6.37;;;5.37;;
8803;SDS011;4438;50.890;4.726;2023-02-28T09:10:50;6.37;;;5.70;;
8803;SDS011;4438;50.890;4.726;2023-02-28T09:13:17;7.50;;;5.67;;
8803;SDS011;4438;50.890;4.726;2023-02-28T09:15:44;6.83;;;6.00;;
8803;SDS011;4438;50.890;4.726;2023-02-28T09:18:10;6.93;;;5.43;;
8803;SDS011;4438;50.890;4.726;2023-02-28T09:20:39;7.17;;;5.70;;
8803;SDS011;4438;50.890;4.726;2023-02-28T09:23:06;5.67;;;5.17;;
8803;SDS011;4438;50.890;4.726;2023-02-28T09:25:32;6.33;;;4.93;;
8803;SDS011;4438;50.890;4.726;2023-02-28T09:27:59;6.57;;;4.80;;
8803;SDS011;4438;50.890;4.726;2023-02-28T09:30:25;5.07;;;4.47;;
8803;SDS011;4438;50.890;4.726;2023-02-28T09:32:51;4.90;;;4.40;;
8803;SDS011;4438;50.890;4.726;2023-02-28T09:35:19;7.57;;;4.90;;
8803;SDS011;4438;50.890;4.726;2023-02-28T09:37:46;6.50;;;4.87;;
8803;SDS011;4438;50.890;4.726;2023-02-28T09:40:12;5.67;;;4.60;;
8803;SDS011;4438;50.890;4.726;2023-02-28T09:42:39;5.57;;;4.23;;
8803;SDS011;4438;50.890;4.726;2023-02-28T09:48:09;4.70;;;4.10;;
8803;SDS011;4438;50.890;4.726;2023-02-28T09:50:46;5.90;;;3.73;;
8803;SDS011;4438;50.890;4.726;2023-02-28T09:53:26;4.50;;;4.07;;
8803;SDS011;4438;50.890;4.726;2023-02-28T09:55:55;5.50;;;4.10;;
8803;SDS011;4438;50.890;4.726;2023-02-28T09:58:26;5.83;;;3.67;;
8803;SDS011;4438;50.890;4.726;2023-02-28T10:00:56;7.80;;;3.80;;
8803;SDS011;4438;50.890;4.726;2023-02-28T10:03:25;4.50;;;4.10;;
8803;SDS011;4438;50.890;4.726;2023-02-28T10:08:29;4.17;;;3.50;;
8803;SDS011;4438;50.890;4.726;2023-02-28T10:11:02;4.07;;;3.23;;
8803;SDS011;4438;50.890;4.726;2023-02-28T10:13:33;4.93;;;3.50;;
8803;SDS011;4438;50.890;4.726;2023-02-28T10:18:33;4.23;;;3.03;;
8803;SDS011;4438;50.890;4.726;2023-02-28T10:21:02;4.93;;;3.37;;
8803;SDS011;4438;50.890;4.726;2023-02-28T10:23:31;3.10;;;2.80;;
8803;SDS011;4438;50.890;4.726;2023-02-28T10:26:14;5.70;;;3.50;;
8803;SDS011;4438;50.890;4.726;2023-02-28T10:28:43;4.30;;;3.37;;
8803;SDS011;4438;50.890;4.726;2023-02-28T10:31:19;3.83;;;3.10;;
8803;SDS011;4438;50.890;4.726;2023-02-28T10:33:46;3.63;;;3.30;;
8803;SDS011;4438;50.890;4.726;2023-02-28T10:36:16;3.97;;;3.20;;
8803;SDS011;4438;50.890;4.726;2023-02-28T10:38:43;3.40;;;3.00;;
8803;SDS011;4438;50.890;4.726;2023-02-28T10:41:11;4.43;;;3.17;;
8803;SDS011;4438;50.890;4.726;2023-02-28T10:43:39;3.67;;;3.33;;
8803;SDS011;4438;50.890;4.726;2023-02-28T10:51:05;4.40;;;3.13;;
8803;SDS011;4438;50.890;4.726;2023-02-28T10:58:46;4.00;;;3.20;;
8803;SDS011;4438;50.890;4.726;2023-02-28T11:01:17;3.87;;;3.40;;
8803;SDS011;4438;50.890;4.726;2023-02-28T11:03:45;3.50;;;3.20;;
8803;SDS011;4438;50.890;4.726;2023-02-28T11:06:15;3.37;;;3.07;;
8803;SDS011;4438;50.890;4.726;2023-02-28T11:08:49;3.47;;;3.17;;
8803;SDS011;4438;50.890;4.726;2023-02-28T11:11:16;3.90;;;2.87;;
8803;SDS011;4438;50.890;4.726;2023-02-28T11:13:44;3.43;;;2.90;;
8803;SDS011;4438;50.890;4.726;2023-02-28T11:16:12;3.90;;;2.90;;
8803;SDS011;4438;50.890;4.726;2023-02-28T11:21:04;5.27;;;2.80;;
8803;SDS011;4438;50.890;4.726;2023-02-28T11:23:32;3.43;;;2.57;;
8803;SDS011;4438;50.890;4.726;2023-02-28T11:26:01;3.47;;;2.77;;
8803;SDS011;4438;50.890;4.726;2023-02-28T11:33:32;4.00;;;3.00;;
8803;SDS011;4438;50.890;4.726;2023-02-28T11:36:07;3.20;;;2.80;;
8803;SDS011;4438;50.890;4.726;2023-02-28T11:38:35;3.40;;;3.10;;
8803;SDS011;4438;50.890;4.726;2023-02-28T11:41:05;3.70;;;2.67;;
8803;SDS011;4438;50.890;4.726;2023-02-28T11:51:05;3.03;;;2.70;;
8803;SDS011;4438;50.890;4.726;2023-02-28T11:56:11;3.40;;;3.10;;
8803;SDS011;4438;50.890;4.726;2023-02-28T11:58:53;6.97;;;3.40;;
8803;SDS011;4438;50.890;4.726;2023-02-28T12:01:24;3.53;;;2.70;;
8803;SDS011;4438;50.890;4.726;2023-02-28T12:03:56;3.00;;;2.70;;
8803;SDS011;4438;50.890;4.726;2023-02-28T12:06:25;5.53;;;3.00;;
8803;SDS011;4438;50.890;4.726;2023-02-28T12:11:56;4.67;;;3.00;;
8803;SDS011;4438;50.890;4.726;2023-02-28T12:17:10;3.20;;;2.90;;
8803;SDS011;4438;50.890;4.726;2023-02-28T12:19:56;3.10;;;2.80;;
8803;SDS011;4438;50.890;4.726;2023-02-28T12:22:37;3.53;;;2.80;;
8803;SDS011;4438;50.890;4.726;2023-02-28T12:27:40;3.27;;;2.87;;
8803;SDS011;4438;50.890;4.726;2023-02-28T12:30:27;5.03;;;3.20;;
8803;SDS011;4438;50.890;4.726;2023-02-28T12:35:41;3.40;;;2.90;;
8803;SDS011;4438;50.890;4.726;2023-02-28T12:38:55;3.50;;;3.23;;
8803;SDS011;4438;50.890;4.726;2023-02-28T12:41:02;3.67;;;3.37;;
8803;SDS011;4438;50.890;4.726;2023-02-28T12:43:33;4.97;;;3.00;;
8803;SDS011;4438;50.890;4.726;2023-02-28T12:46:01;3.13;;;2.93;;
8803;SDS011;4438;50.890;4.726;2023-02-28T12:48:31;3.40;;;2.97;;
8803;SDS011;4438;50.890;4.726;2023-02-28T12:50:59;3.33;;;3.03;;
8803;SDS011;4438;50.890;4.726;2023-02-28T12:53:28;3.33;;;3.03;;
8803;SDS011;4438;50.890;4.726;2023-02-28T12:56:02;3.03;;;2.73;;
8803;SDS011;4438;50.890;4.726;2023-02-28T12:58:45;3.10;;;2.90;;
8803;SDS011;4438;50.890;4.726;2023-02-28T13:09:09;3.97;;;3.57;;
8803;SDS011;4438;50.890;4.726;2023-02-28T13:11:54;4.00;;;3.60;;
8803;SDS011;4438;50.890;4.726;2023-02-28T13:16:51;3.37;;;3.07;;
8803;SDS011;4438;50.890;4.726;2023-02-28T13:19:19;18.83;;;12.83;;
8803;SDS011;4438;50.890;4.726;2023-02-28T13:21:45;3.93;;;3.60;;
8803;SDS011;4438;50.890;4.726;2023-02-28T13:24:36;4.20;;;3.83;;
8803;SDS011;4438;50.890;4.726;2023-02-28T13:47:43;18.50;;;4.80;;
8803;SDS011;4438;50.890;4.726;2023-02-28T13:50:20;20.67;;;5.63;;
8803;SDS011;4438;50.890;4.726;2023-02-28T13:55:31;12.93;;;4.03;;
8803;SDS011;4438;50.890;4.726;2023-02-28T14:00:51;4.13;;;3.50;;
8803;SDS011;4438;50.890;4.726;2023-02-28T14:08:35;6.93;;;6.40;;
8803;SDS011;4438;50.890;4.726;2023-02-28T14:11:04;5.37;;;3.80;;
8803;SDS011;4438;50.890;4.726;2023-02-28T14:13:38;4.00;;;3.43;;
8803;SDS011;4438;50.890;4.726;2023-02-28T14:16:09;4.63;;;3.67;;
8803;SDS011;4438;50.890;4.726;2023-02-28T14:18:37;5.70;;;3.70;;
8803;SDS011;4438;50.890;4.726;2023-02-28T14:26:37;4.93;;;3.93;;
8803;SDS011;4438;50.890;4.726;2023-02-28T14:31:39;3.80;;;3.50;;
8803;SDS011;4438;50.890;4.726;2023-02-28T14:36:42;4.13;;;3.83;;
8803;SDS011;4438;50.890;4.726;2023-02-28T14:39:13;3.93;;;3.60;;
8803;SDS011;4438;50.890;4.726;2023-02-28T14:41:40;5.50;;;3.90;;
8803;SDS011;4438;50.890;4.726;2023-02-28T14:44:20;4.67;;;3.03;;
8803;SDS011;4438;50.890;4.726;2023-02-28T14:46:48;4.80;;;4.00;;
8803;SDS011;4438;50.890;4.726;2023-02-28T14:49:17;4.57;;;3.80;;
8803;SDS011;4438;50.890;4.726;2023-02-28T14:51:43;4.47;;;3.37;;
8803;SDS011;4438;50.890;4.726;2023-02-28T14:54:13;4.27;;;3.87;;
8803;SDS011;4438;50.890;4.726;2023-02-28T14:56:40;4.60;;;3.97;;
8803;SDS011;4438;50.890;4.726;2023-02-28T14:59:21;3.93;;;3.63;;
8803;SDS011;4438;50.890;4.726;2023-02-28T15:01:48;4.17;;;3.77;;
8803;SDS011;4438;50.890;4.726;2023-02-28T15:04:18;4.10;;;3.80;;
8803;SDS011;4438;50.890;4.726;2023-02-28T15:06:46;3.70;;;3.40;;
8803;SDS011;4438;50.890;4.726;2023-02-28T15:09:32;3.40;;;3.03;;
8803;SDS011;4438;50.890;4.726;2023-02-28T15:11:58;4.63;;;4.20;;
8803;SDS011;4438;50.890;4.726;2023-02-28T15:14:24;4.20;;;3.80;;
8803;SDS011;4438;50.890;4.726;2023-02-28T15:16:55;4.10;;;3.80;;
8803;SDS011;4438;50.890;4.726;2023-02-28T15:19:31;3.90;;;3.60;;
8803;SDS011;4438;50.890;4.726;2023-02-28T15:21:59;3.80;;;3.50;;
8803;SDS011;4438;50.890;4.726;2023-02-28T15:24:49;6.13;;;3.93;;
8803;SDS011;4438;50.890;4.726;2023-02-28T15:30:06;3.83;;;3.53;;
8803;SDS011;4438;50.890;4.726;2023-02-28T15:32:34;5.10;;;3.70;;
8803;SDS011;4438;50.890;4.726;2023-02-28T15:37:52;3.97;;;3.67;;
8803;SDS011;4438;50.890;4.726;2023-02-28T15:40:23;4.10;;;3.27;;
8803;SDS011;4438;50.890;4.726;2023-02-28T15:43:03;4.00;;;3.70;;
8803;SDS011;4438;50.890;4.726;2023-02-28T15:45:34;4.87;;;3.67;;
8803;SDS011;4438;50.890;4.726;2023-02-28T15:48:03;4.37;;;3.97;;
8803;SDS011;4438;50.890;4.726;2023-02-28T15:50:30;4.17;;;3.80;;
8803;SDS011;4438;50.890;4.726;2023-02-28T15:52:56;4.10;;;3.70;;
8803;SDS011;4438;50.890;4.726;2023-02-28T15:55:23;4.07;;;3.70;;
8803;SDS011;4438;50.890;4.726;2023-02-28T15:57:50;3.53;;;3.23;;
8803;SDS011;4438;50.890;4.726;2023-02-28T16:00:21;5.10;;;3.87;;
8803;SDS011;4438;50.890;4.726;2023-02-28T16:02:48;4.50;;;3.30;;
8803;SDS011;4438;50.890;4.726;2023-02-28T16:07:41;4.57;;;3.37;;
8803;SDS011;4438;50.890;4.726;2023-02-28T16:10:09;3.80;;;3.40;;
8803;SDS011;4438;50.890;4.726;2023-02-28T16:12:36;3.97;;;3.53;;
8803;SDS011;4438;50.890;4.726;2023-02-28T16:15:06;4.80;;;3.50;;
8803;SDS011;4438;50.890;4.726;2023-02-28T16:17:33;4.00;;;3.60;;
8803;SDS011;4438;50.890;4.726;2023-02-28T16:20:00;4.80;;;3.57;;
8803;SDS011;4438;50.890;4.726;2023-02-28T16:22:26;4.00;;;3.60;;
8803;SDS011;4438;50.890;4.726;2023-02-28T16:24:52;4.30;;;3.90;;
8803;SDS011;4438;50.890;4.726;2023-02-28T16:27:20;3.97;;;3.67;;
8803;SDS011;4438;50.890;4.726;2023-02-28T16:29:47;3.37;;;3.07;;
8803;SDS011;4438;50.890;4.726;2023-02-28T16:32:14;3.80;;;3.50;;
8803;SDS011;4438;50.890;4.726;2023-02-28T16:34:41;3.33;;;3.03;;
8803;SDS011;4438;50.890;4.726;2023-02-28T16:37:14;4.73;;;3.60;;
8803;SDS011;4438;50.890;4.726;2023-02-28T16:39:41;4.03;;;3.30;;
8803;SDS011;4438;50.890;4.726;2023-02-28T16:42:14;4.17;;;3.27;;
8803;SDS011;4438;50.890;4.726;2023-02-28T16:44:41;4.83;;;3.43;;
8803;SDS011;4438;50.890;4.726;2023-02-28T16:47:08;6.03;;;3.57;;
8803;SDS011;4438;50.890;4.726;2023-02-28T16:49:35;3.30;;;3.00;;
8803;SDS011;4438;50.890;4.726;2023-02-28T16:52:02;4.37;;;3.20;;
8803;SDS011;4438;50.890;4.726;2023-02-28T16:54:28;4.30;;;3.30;;
8803;SDS011;4438;50.890;4.726;2023-02-28T16:56:54;4.33;;;3.93;;
8803;SDS011;4438;50.890;4.726;2023-02-28T16:59:23;4.20;;;3.80;;
8803;SDS011;4438;50.890;4.726;2023-02-28T17:01:50;3.90;;;3.50;;
8803;SDS011;4438;50.890;4.726;2023-02-28T17:04:17;3.83;;;3.43;;
8803;SDS011;4438;50.890;4.726;2023-02-28T17:06:43;4.17;;;3.43;;
8803;SDS011;4438;50.890;4.726;2023-02-28T17:09:19;4.00;;;3.60;;
8803;SDS011;4438;50.890;4.726;2023-02-28T17:11:46;4.33;;;3.90;;
8803;SDS011;4438;50.890;4.726;2023-02-28T17:14:12;4.60;;;3.50;;
8803;SDS011;4438;50.890;4.726;2023-02-28T17:16:38;3.77;;;3.47;;
8803;SDS011;4438;50.890;4.726;2023-02-28T17:19:05;4.50;;;3.73;;
8803;SDS011;4438;50.890;4.726;2023-02-28T17:21:32;5.07;;;3.80;;
8803;SDS011;4438;50.890;4.726;2023-02-28T17:23:59;4.30;;;3.87;;
8803;SDS011;4438;50.890;4.726;2023-02-28T17:26:25;4.47;;;3.60;;
8803;SDS011;4438;50.890;4.726;2023-02-28T17:28:53;4.23;;;3.80;;
8803;SDS011;4438;50.890;4.726;2023-02-28T17:31:21;4.20;;;3.80;;
8803;SDS011;4438;50.890;4.726;2023-02-28T17:33:47;5.33;;;3.93;;
8803;SDS011;4438;50.890;4.726;2023-02-28T17:36:14;5.40;;;3.90;;